Terminal Aerodrome Forecast
Issued by NWS

Home | Current Version | Previous Version | Text Only | Print | Product List | Glossary On
Versions: 1 2 3 4 5 6 7 8 9 10 11 12 13 14
000
FTUS46 KLOX 192300
TAFPMD
TAF
KPMD 192339Z 2000/2024 24010G15KT P6SM SKC
     FM200500 19005KT P6SM SKC
     FM201400 VRB03KT P6SM SKC
     FM201900 26005KT P6SM SKC
     FM202300 23012G17KT P6SM SCT250=

USA.gov is the U.S. government's official web portal to all federal, state and local government web resources and services.